createdAt,value
2023-11-08T00:00:38.354Z,1.80
2023-11-08T00:03:06.902Z,1.88
2023-11-08T00:05:36.953Z,2.00
2023-11-08T00:08:08.083Z,1.90
2023-11-08T00:10:37.314Z,2.08
2023-11-08T00:13:06.029Z,1.85
2023-11-08T00:15:34.587Z,2.10
2023-11-08T00:18:03.137Z,1.80
2023-11-08T00:20:31.964Z,2.10
2023-11-08T00:23:01.957Z,1.88
2023-11-08T00:25:30.550Z,2.05
2023-11-08T00:27:58.779Z,2.10
2023-11-08T00:30:27.317Z,1.75
2023-11-08T00:32:55.860Z,1.77
2023-11-08T00:35:24.350Z,2.10
2023-11-08T00:37:52.783Z,2.40
2023-11-08T00:40:23.047Z,2.40
2023-11-08T00:42:51.949Z,2.28
2023-11-08T00:45:20.466Z,2.20
2023-11-08T00:47:49.207Z,2.42
2023-11-08T00:50:17.746Z,2.20
2023-11-08T00:52:46.378Z,2.25
2023-11-08T00:55:15.045Z,2.35
2023-11-08T00:57:45.473Z,2.20
2023-11-08T01:00:15.631Z,2.42
2023-11-08T01:02:45.871Z,2.13
2023-11-08T01:05:14.665Z,2.20
2023-11-08T01:07:43.656Z,2.10
2023-11-08T01:10:12.449Z,2.50
2023-11-08T01:12:41.142Z,2.05
2023-11-08T01:15:12.724Z,1.77
2023-11-08T01:17:41.556Z,2.13
2023-11-08T01:20:12.633Z,2.63
2023-11-08T01:22:41.989Z,2.47
2023-11-08T01:25:14.167Z,2.35
2023-11-08T01:27:43.090Z,2.53
2023-11-08T01:30:14.914Z,2.63
2023-11-08T01:32:43.358Z,2.42
2023-11-08T01:35:13.215Z,2.50
2023-11-08T01:37:42.275Z,2.33
2023-11-08T01:40:12.382Z,2.60
2023-11-08T01:42:41.119Z,2.67
2023-11-08T01:45:12.419Z,2.67
2023-11-08T01:47:42.402Z,2.17
2023-11-08T01:50:12.117Z,2.22
2023-11-08T01:52:43.536Z,2.25
2023-11-08T01:55:12.769Z,2.22
2023-11-08T01:57:41.741Z,2.33
2023-11-08T02:00:16.761Z,2.30
2023-11-08T02:02:47.566Z,2.30
2023-11-08T02:05:17.257Z,2.33
2023-11-08T02:07:51.101Z,2.45
2023-11-08T02:10:19.534Z,2.28
2023-11-08T02:12:49.890Z,2.20
2023-11-08T02:15:20.420Z,2.35
2023-11-08T02:17:50.097Z,2.42
2023-11-08T02:20:19.301Z,2.50
2023-11-08T02:22:47.974Z,3.03
2023-11-08T02:25:19.232Z,2.78
2023-11-08T02:27:49.195Z,2.78
2023-11-08T02:30:18.487Z,2.60
2023-11-08T02:32:47.311Z,2.67
2023-11-08T02:35:16.151Z,2.47
2023-11-08T02:37:45.992Z,2.50
2023-11-08T02:40:15.476Z,2.53
2023-11-08T02:42:47.386Z,2.97
2023-11-08T02:45:16.663Z,2.75
2023-11-08T02:47:45.673Z,3.00
2023-11-08T02:50:14.490Z,2.90
2023-11-08T02:52:43.270Z,3.58
2023-11-08T02:55:13.236Z,2.88
2023-11-08T02:57:43.801Z,3.05
2023-11-08T03:00:16.407Z,3.17
2023-11-08T03:02:45.487Z,2.65
2023-11-08T03:05:13.960Z,3.22
2023-11-08T03:07:43.989Z,3.08
2023-11-08T03:10:14.992Z,3.50
2023-11-08T03:12:43.389Z,2.95
2023-11-08T03:15:13.964Z,2.72
2023-11-08T03:17:46.789Z,2.80
2023-11-08T03:20:16.526Z,3.42
2023-11-08T03:22:45.736Z,3.25
2023-11-08T03:25:14.946Z,2.88
2023-11-08T03:27:44.361Z,2.50
2023-11-08T03:30:17.039Z,3.00
2023-11-08T03:32:46.344Z,2.67
2023-11-08T03:35:16.558Z,3.53
2023-11-08T03:37:45.424Z,2.88
2023-11-08T03:40:17.037Z,2.75
2023-11-08T03:42:47.214Z,3.08
2023-11-08T03:45:17.381Z,2.80
2023-11-08T03:47:46.429Z,2.78
2023-11-08T03:50:15.013Z,2.40
2023-11-08T03:52:43.837Z,3.17
2023-11-08T03:55:12.680Z,2.22
2023-11-08T03:57:42.405Z,2.70
2023-11-08T04:00:14.632Z,2.72
2023-11-08T04:02:44.641Z,2.45
2023-11-08T04:05:13.292Z,2.67
2023-11-08T04:07:42.359Z,2.13
2023-11-08T04:10:12.334Z,2.30
2023-11-08T04:12:41.102Z,2.55
2023-11-08T04:15:10.721Z,2.47
2023-11-08T04:17:39.629Z,2.42
2023-11-08T04:20:13.769Z,2.65
2023-11-08T04:22:43.614Z,2.47
2023-11-08T04:25:12.859Z,2.72
2023-11-08T04:27:41.567Z,2.58
2023-11-08T04:30:12.500Z,2.00
2023-11-08T04:32:41.128Z,2.45
2023-11-08T04:35:11.853Z,2.70
2023-11-08T04:37:40.949Z,2.58
2023-11-08T04:40:12.274Z,2.10
2023-11-08T04:42:41.854Z,2.65
2023-11-08T04:45:11.368Z,2.40
2023-11-08T04:47:40.162Z,2.15
2023-11-08T04:50:12.648Z,2.47
2023-11-08T04:52:41.309Z,2.72
2023-11-08T04:55:10.802Z,2.10
2023-11-08T04:57:42.589Z,2.65
2023-11-08T05:00:12.910Z,2.08
2023-11-08T05:02:42.774Z,2.50
2023-11-08T05:05:16.042Z,2.42
2023-11-08T05:07:45.291Z,2.42
2023-11-08T05:10:14.761Z,1.85
2023-11-08T05:12:43.981Z,2.78
2023-11-08T05:15:13.021Z,2.13
2023-11-08T05:17:44.367Z,2.17
2023-11-08T05:20:18.396Z,2.33
2023-11-08T05:22:47.040Z,2.30
2023-11-08T05:25:16.593Z,2.30
2023-11-08T05:27:45.440Z,2.00
2023-11-08T05:30:17.240Z,1.65
2023-11-08T05:32:46.412Z,1.75
2023-11-08T05:35:16.824Z,2.05
2023-11-08T05:37:45.481Z,1.77
2023-11-08T05:40:16.237Z,2.00
2023-11-08T05:42:45.974Z,1.93
2023-11-08T05:45:14.678Z,1.80
2023-11-08T05:47:45.719Z,2.03
2023-11-08T05:50:16.130Z,1.80
2023-11-08T05:52:45.069Z,2.00
2023-11-08T05:55:13.956Z,1.80
2023-11-08T05:57:42.954Z,2.00
2023-11-08T06:00:24.215Z,2.17
2023-11-08T06:02:53.065Z,2.40
2023-11-08T06:05:23.611Z,2.13
2023-11-08T06:07:52.267Z,2.13
2023-11-08T06:10:20.899Z,2.03
2023-11-08T06:12:50.047Z,1.90
2023-11-08T06:15:18.551Z,2.10
2023-11-08T06:17:47.698Z,1.63
2023-11-08T06:20:16.442Z,1.98
2023-11-08T06:22:46.680Z,2.00
2023-11-08T06:25:15.309Z,2.00
2023-11-08T06:27:44.520Z,2.17
2023-11-08T06:30:13.889Z,2.10
2023-11-08T06:32:43.077Z,1.90
2023-11-08T06:35:11.815Z,2.20
2023-11-08T06:37:40.194Z,2.20
2023-11-08T06:40:12.761Z,1.95
2023-11-08T06:42:44.137Z,1.70
2023-11-08T06:45:14.301Z,1.70
2023-11-08T06:47:43.130Z,1.98
2023-11-08T06:50:18.163Z,2.10
2023-11-08T06:52:47.877Z,1.90
2023-11-08T06:55:27.883Z,1.70
2023-11-08T06:58:06.076Z,1.90
2023-11-08T07:00:37.025Z,2.10
2023-11-08T07:03:10.374Z,2.03
2023-11-08T07:05:39.673Z,1.60
2023-11-08T07:08:09.518Z,2.03
2023-11-08T07:10:40.526Z,2.00
2023-11-08T07:13:09.458Z,1.85
2023-11-08T07:15:40.441Z,1.40
2023-11-08T07:20:39.477Z,1.53
2023-11-08T07:23:09.744Z,1.70
2023-11-08T07:25:43.138Z,1.50
2023-11-08T07:28:19.306Z,1.40
2023-11-08T07:30:51.932Z,1.50
2023-11-08T07:33:23.486Z,1.50
2023-11-08T07:35:51.941Z,1.67
2023-11-08T07:38:26.996Z,1.77
2023-11-08T07:41:01.441Z,1.40
2023-11-08T07:43:29.830Z,1.90
2023-11-08T07:45:58.422Z,1.80
2023-11-08T07:48:27.293Z,1.60
2023-11-08T07:52:37.600Z,1.70
2023-11-08T07:55:19.721Z,1.30
2023-11-08T07:57:50.284Z,1.70
2023-11-08T08:00:25.947Z,1.20
2023-11-08T08:02:54.876Z,1.40
2023-11-08T08:05:23.788Z,1.52
2023-11-08T08:07:53.376Z,1.38
2023-11-08T08:10:22.786Z,1.30
2023-11-08T08:12:53.178Z,1.50
2023-11-08T08:15:21.750Z,1.55
2023-11-08T08:17:50.727Z,1.23
2023-11-08T08:20:19.669Z,1.38
2023-11-08T08:22:48.679Z,1.02
2023-11-08T08:25:19.055Z,1.23
2023-11-08T08:27:47.720Z,1.20
2023-11-08T08:30:18.031Z,1.70
2023-11-08T08:32:48.471Z,1.58
2023-11-08T08:35:18.975Z,1.17
2023-11-08T08:37:47.730Z,1.67
2023-11-08T08:40:16.506Z,1.63
2023-11-08T08:42:45.865Z,1.45
2023-11-08T08:45:14.910Z,1.58
2023-11-08T08:47:45.665Z,1.50
2023-11-08T08:50:16.053Z,1.50
2023-11-08T08:52:45.637Z,1.48
2023-11-08T08:55:31.649Z,1.40
2023-11-08T08:58:00.369Z,1.40
2023-11-08T09:00:29.782Z,1.30
2023-11-08T09:03:00.033Z,1.60
2023-11-08T09:05:28.899Z,1.60
2023-11-08T09:07:59.020Z,1.30
2023-11-08T09:10:28.163Z,1.60
2023-11-08T09:12:57.062Z,1.23
2023-11-08T09:15:25.951Z,1.63
2023-11-08T09:17:54.864Z,1.55
2023-11-08T09:20:24.891Z,1.35
2023-11-08T09:22:53.265Z,2.10
2023-11-08T09:25:22.371Z,1.88
2023-11-08T09:27:51.105Z,1.73
2023-11-08T09:30:24.289Z,1.73
2023-11-08T09:33:15.881Z,2.00
2023-11-08T09:37:15.624Z,1.77
2023-11-08T09:49:13.519Z,1.40
2023-11-08T09:52:24.427Z,1.70
2023-11-08T11:03:29.711Z,1.25
2023-11-08T11:06:04.236Z,1.38
2023-11-08T11:08:42.104Z,1.17
2023-11-08T11:11:11.098Z,1.58
2023-11-08T11:13:49.823Z,1.30
2023-11-08T11:16:33.595Z,1.00
2023-11-08T11:19:09.880Z,1.13
2023-11-08T11:21:45.266Z,1.00
2023-11-08T11:24:41.317Z,0.98
2023-11-08T11:27:11.735Z,1.25
2023-11-08T11:29:42.853Z,1.23
2023-11-08T11:32:42.246Z,1.15
2023-11-08T11:35:13.982Z,0.88
2023-11-08T11:37:42.708Z,1.23
2023-11-08T11:40:16.300Z,1.10
2023-11-08T11:42:47.978Z,1.20
2023-11-08T11:45:19.081Z,1.23
2023-11-08T11:47:54.269Z,0.95
2023-11-08T11:50:26.609Z,0.85
2023-11-08T11:52:55.621Z,0.90
2023-11-08T11:55:24.771Z,1.05
2023-11-08T11:57:53.352Z,1.02
2023-11-08T12:00:22.642Z,0.88
2023-11-08T12:02:52.279Z,1.17
2023-11-08T12:05:20.855Z,0.70
2023-11-08T12:07:52.707Z,1.40
2023-11-08T12:10:27.695Z,0.75
2023-11-08T12:12:57.168Z,0.75
2023-11-08T12:15:26.707Z,0.90
2023-11-08T12:17:58.733Z,1.23
2023-11-08T12:20:30.889Z,0.95
2023-11-08T12:23:01.474Z,1.33
2023-11-08T12:25:30.904Z,0.68
2023-11-08T12:27:59.315Z,0.88
2023-11-08T12:30:29.955Z,1.17
2023-11-08T12:32:59.815Z,1.05
2023-11-08T12:35:29.817Z,0.95
2023-11-08T12:38:01.163Z,0.98
2023-11-08T12:40:29.857Z,1.13
2023-11-08T12:43:56.121Z,1.00
2023-11-08T12:46:35.515Z,1.00
2023-11-08T12:48:38.128Z,1.05
2023-11-08T12:51:09.353Z,1.27
2023-11-08T12:53:39.909Z,1.20
2023-11-08T12:56:09.263Z,1.00
2023-11-08T12:58:38.418Z,1.00
2023-11-08T13:01:08.606Z,0.98
2023-11-08T13:03:58.754Z,0.85
2023-11-08T13:06:34.493Z,0.98
2023-11-08T13:14:34.818Z,0.90
2023-11-08T13:17:15.128Z,1.13
2023-11-08T13:22:57.315Z,0.68
2023-11-08T13:29:14.502Z,0.77
2023-11-08T13:37:08.764Z,1.00
2023-11-08T13:47:58.516Z,1.10
2023-11-08T13:57:12.032Z,0.82
2023-11-08T14:03:09.615Z,1.10
2023-11-08T14:06:38.484Z,0.82
2023-11-08T14:12:24.029Z,0.85
2023-11-08T14:15:21.734Z,0.70
2023-11-08T14:18:10.710Z,0.90
2023-11-08T14:20:49.853Z,0.70
2023-11-08T14:23:25.870Z,0.70
2023-11-08T14:26:10.244Z,1.00
2023-11-08T14:28:54.829Z,1.10
2023-11-08T14:31:27.392Z,1.10
2023-11-08T14:34:18.358Z,0.85
2023-11-08T14:36:59.578Z,1.05
2023-11-08T14:39:42.488Z,0.95
2023-11-08T14:42:30.940Z,0.82
2023-11-08T14:45:34.391Z,1.00
2023-11-08T14:48:20.355Z,0.90
2023-11-08T14:51:03.012Z,1.02
2023-11-08T14:56:25.464Z,1.20
2023-11-08T14:59:03.073Z,1.25
2023-11-08T15:02:27.824Z,1.08
2023-11-08T15:05:31.162Z,1.02
2023-11-08T15:09:52.976Z,0.73
2023-11-08T15:12:33.137Z,1.02
2023-11-08T15:19:05.814Z,0.93
2023-11-08T15:25:08.019Z,0.60
2023-11-08T15:32:35.211Z,1.08
2023-11-08T15:35:07.328Z,1.23
2023-11-08T15:37:35.775Z,0.90
2023-11-08T15:40:09.077Z,1.10
2023-11-08T15:42:39.383Z,0.93
2023-11-08T15:45:10.973Z,0.80
2023-11-08T15:47:42.948Z,1.00
2023-11-08T15:50:15.598Z,0.70
2023-11-08T15:52:46.581Z,0.82
2023-11-08T15:55:18.105Z,0.90
2023-11-08T15:57:46.536Z,0.90
2023-11-08T16:00:18.557Z,0.55
2023-11-08T16:02:48.548Z,0.88
2023-11-08T16:05:17.277Z,1.10
2023-11-08T16:07:45.903Z,0.70
2023-11-08T16:10:16.846Z,0.70
2023-11-08T16:12:47.070Z,1.05
2023-11-08T16:15:15.942Z,0.52
2023-11-08T16:17:44.403Z,0.70
2023-11-08T16:20:15.129Z,0.45
2023-11-08T16:22:43.339Z,1.00
2023-11-08T16:25:12.436Z,0.80
2023-11-08T16:27:45.651Z,1.08
2023-11-08T16:30:15.544Z,0.80
2023-11-08T16:32:45.106Z,0.85
2023-11-08T16:35:15.182Z,1.05
2023-11-08T16:37:44.076Z,0.88
2023-11-08T16:40:14.246Z,0.75
2023-11-08T16:42:42.799Z,1.00
2023-11-08T16:48:53.289Z,0.85
2023-11-08T16:51:24.619Z,0.90
2023-11-08T16:53:53.034Z,1.08
2023-11-08T16:56:22.804Z,1.00
2023-11-08T16:58:54.485Z,1.00
2023-11-08T17:01:24.125Z,0.90
2023-11-08T17:03:52.474Z,0.95
2023-11-08T17:06:22.214Z,0.82
2023-11-08T17:08:50.955Z,1.05
2023-11-08T17:11:19.150Z,0.90
2023-11-08T17:13:47.431Z,0.90
2023-11-08T17:16:17.122Z,0.80
2023-11-08T17:18:46.193Z,0.70
2023-11-08T17:21:17.691Z,0.90
2023-11-08T17:23:55.402Z,0.63
2023-11-08T17:26:23.701Z,0.70
2023-11-08T17:28:54.128Z,0.60
2023-11-08T17:31:22.876Z,0.70
2023-11-08T17:33:51.326Z,0.77
2023-11-08T17:36:19.931Z,0.70
2023-11-08T17:38:53.187Z,1.40
2023-11-08T17:41:23.635Z,0.95
2023-11-08T17:43:56.165Z,0.77
2023-11-08T17:46:24.589Z,1.08
2023-11-08T17:48:52.859Z,0.90
2023-11-08T17:51:25.088Z,1.02
2023-11-08T17:53:53.485Z,0.85
2023-11-08T17:56:24.754Z,0.80
2023-11-08T17:58:54.728Z,0.82
2023-11-08T18:01:23.483Z,0.73
2023-11-08T18:03:52.336Z,0.80
2023-11-08T18:06:21.805Z,0.82
2023-11-08T18:08:50.741Z,0.77
2023-11-08T18:11:19.824Z,0.90
2023-11-08T18:13:49.930Z,0.75
2023-11-08T18:16:18.764Z,0.95
2023-11-08T18:18:47.502Z,0.73
2023-11-08T18:22:31.702Z,0.82
2023-11-08T18:25:00.896Z,0.90
2023-11-08T18:27:29.332Z,0.68
2023-11-08T18:29:59.310Z,0.70
2023-11-08T18:32:28.767Z,0.70
2023-11-08T18:35:01.865Z,0.90
2023-11-08T18:40:21.111Z,0.95
2023-11-08T18:42:49.854Z,0.70
2023-11-08T18:45:27.337Z,0.57
2023-11-08T18:48:01.418Z,0.73
2023-11-08T18:50:30.034Z,0.80
2023-11-08T18:52:58.647Z,0.80
2023-11-08T18:55:27.652Z,0.88
2023-11-08T18:58:02.015Z,0.98
2023-11-08T19:00:45.880Z,0.63
2023-11-08T19:06:03.552Z,0.70
2023-11-08T19:08:45.499Z,1.30
2023-11-08T19:11:15.028Z,1.00
2023-11-08T19:13:43.806Z,1.15
2023-11-08T19:16:19.726Z,0.70
2023-11-08T19:18:55.468Z,1.05
2023-11-08T19:21:25.480Z,1.17
2023-11-08T19:23:54.125Z,1.08
2023-11-08T19:26:22.660Z,1.02
2023-11-08T19:28:51.165Z,1.48
2023-11-08T19:34:28.357Z,1.88
2023-11-08T19:36:59.115Z,1.17
2023-11-08T19:39:27.843Z,1.38
2023-11-08T19:41:56.536Z,0.98
2023-11-08T19:44:25.112Z,0.98
2023-11-08T19:46:57.413Z,1.00
2023-11-08T19:49:26.427Z,1.00
2023-11-08T19:51:55.085Z,0.85
2023-11-08T19:54:24.861Z,0.75
2023-11-08T19:56:53.146Z,0.93
2023-11-08T19:59:25.389Z,0.95
2023-11-08T20:01:59.224Z,1.17
2023-11-08T20:04:28.925Z,1.50
2023-11-08T20:06:59.087Z,1.55
2023-11-08T20:09:28.838Z,0.90
2023-11-08T20:11:59.255Z,0.70
2023-11-08T20:14:32.804Z,0.93
2023-11-08T20:17:02.782Z,1.50
2023-11-08T20:19:31.358Z,1.13
2023-11-08T20:22:01.494Z,2.40
2023-11-08T20:24:34.771Z,1.60
2023-11-08T20:27:06.134Z,1.00
2023-11-08T20:29:37.764Z,1.30
2023-11-08T20:32:22.360Z,0.98
2023-11-08T20:34:55.384Z,1.00
2023-11-08T20:37:26.527Z,0.75
2023-11-08T20:40:20.708Z,0.68
2023-11-08T20:42:50.451Z,1.13
2023-11-08T20:45:18.833Z,1.50
2023-11-08T20:47:51.831Z,1.30
2023-11-08T20:50:20.320Z,1.10
2023-11-08T20:52:48.931Z,0.70
2023-11-08T20:55:20.215Z,0.93
2023-11-08T20:57:48.587Z,1.00
2023-11-08T21:00:20.745Z,0.95
2023-11-08T21:02:58.179Z,0.70
2023-11-08T21:18:05.122Z,0.52
2023-11-08T21:49:20.943Z,0.70
2023-11-08T21:58:58.059Z,0.70
2023-11-08T22:08:11.896Z,0.93
2023-11-08T22:11:29.260Z,0.95
2023-11-08T22:57:40.956Z,0.60
2023-11-08T23:00:16.025Z,0.82
2023-11-08T23:02:44.763Z,1.05
2023-11-08T23:05:13.457Z,0.73
2023-11-08T23:07:42.681Z,0.82
2023-11-08T23:10:14.701Z,0.82
2023-11-08T23:12:47.161Z,0.65
2023-11-08T23:16:29.436Z,0.80
2023-11-08T23:24:02.585Z,0.80
2023-11-08T23:30:56.911Z,0.70
2023-11-08T23:42:22.405Z,1.13
2023-11-08T23:49:15.780Z,1.00
2023-11-08T23:53:32.453Z,0.85
2023-11-08T23:56:44.876Z,0.70
2023-11-08T23:59:17.604Z,1.00
